sensor_id;sensor_type;location;lat;lon;timestamp;P1;durP1;ratioP1;P2;durP2;ratioP2
80136;SDS011;69466;55.948;37.484;2024-02-26T00:02:10;8.93;;;4.13;;
80136;SDS011;69466;55.948;37.484;2024-02-26T00:04:38;8.93;;;4.13;;
80136;SDS011;69466;55.948;37.484;2024-02-26T00:07:04;8.98;;;4.10;;
80136;SDS011;69466;55.948;37.484;2024-02-26T00:09:30;10.20;;;4.95;;
80136;SDS011;69466;55.948;37.484;2024-02-26T00:11:56;8.50;;;4.20;;
80136;SDS011;69466;55.948;37.484;2024-02-26T00:14:24;9.05;;;4.97;;
80136;SDS011;69466;55.948;37.484;2024-02-26T00:16:50;10.02;;;4.60;;
80136;SDS011;69466;55.948;37.484;2024-02-26T00:19:17;10.27;;;4.07;;
80136;SDS011;69466;55.948;37.484;2024-02-26T00:21:43;8.07;;;4.03;;
80136;SDS011;69466;55.948;37.484;2024-02-26T00:24:09;8.77;;;3.58;;
80136;SDS011;69466;55.948;37.484;2024-02-26T00:26:35;9.50;;;4.35;;
80136;SDS011;69466;55.948;37.484;2024-02-26T00:29:03;8.27;;;3.70;;
80136;SDS011;69466;55.948;37.484;2024-02-26T00:31:29;7.85;;;4.05;;
80136;SDS011;69466;55.948;37.484;2024-02-26T00:33:55;7.65;;;3.63;;
80136;SDS011;69466;55.948;37.484;2024-02-26T00:36:21;8.95;;;3.67;;
80136;SDS011;69466;55.948;37.484;2024-02-26T00:38:47;10.00;;;4.25;;
80136;SDS011;69466;55.948;37.484;2024-02-26T00:41:17;8.88;;;3.88;;
80136;SDS011;69466;55.948;37.484;2024-02-26T00:43:43;6.63;;;3.67;;
80136;SDS011;69466;55.948;37.484;2024-02-26T00:46:09;8.13;;;3.50;;
80136;SDS011;69466;55.948;37.484;2024-02-26T00:48:35;8.18;;;3.95;;
80136;SDS011;69466;55.948;37.484;2024-02-26T00:51:02;7.65;;;3.50;;
80136;SDS011;69466;55.948;37.484;2024-02-26T00:53:33;9.23;;;4.13;;
80136;SDS011;69466;55.948;37.484;2024-02-26T00:55:59;7.40;;;3.75;;
80136;SDS011;69466;55.948;37.484;2024-02-26T00:58:26;7.75;;;3.50;;
80136;SDS011;69466;55.948;37.484;2024-02-26T01:00:52;10.45;;;3.53;;
80136;SDS011;69466;55.948;37.484;2024-02-26T01:03:18;7.65;;;4.00;;
80136;SDS011;69466;55.948;37.484;2024-02-26T01:05:45;6.45;;;3.20;;
80136;SDS011;69466;55.948;37.484;2024-02-26T01:08:12;7.15;;;3.28;;
80136;SDS011;69466;55.948;37.484;2024-02-26T01:10:39;7.93;;;3.40;;
80136;SDS011;69466;55.948;37.484;2024-02-26T01:13:05;8.52;;;3.92;;
80136;SDS011;69466;55.948;37.484;2024-02-26T01:15:33;6.05;;;3.50;;
80136;SDS011;69466;55.948;37.484;2024-02-26T01:17:59;5.97;;;3.20;;
80136;SDS011;69466;55.948;37.484;2024-02-26T01:20:25;9.98;;;4.32;;
80136;SDS011;69466;55.948;37.484;2024-02-26T01:22:51;8.55;;;3.72;;
80136;SDS011;69466;55.948;37.484;2024-02-26T01:25:17;8.52;;;3.47;;
80136;SDS011;69466;55.948;37.484;2024-02-26T01:27:43;8.25;;;3.70;;
80136;SDS011;69466;55.948;37.484;2024-02-26T01:30:10;7.35;;;3.75;;
80136;SDS011;69466;55.948;37.484;2024-02-26T01:32:36;9.43;;;3.80;;
80136;SDS011;69466;55.948;37.484;2024-02-26T01:35:02;8.38;;;3.63;;
80136;SDS011;69466;55.948;37.484;2024-02-26T01:37:29;8.55;;;3.72;;
80136;SDS011;69466;55.948;37.484;2024-02-26T01:39:57;7.57;;;3.95;;
80136;SDS011;69466;55.948;37.484;2024-02-26T01:42:25;6.90;;;3.47;;
80136;SDS011;69466;55.948;37.484;2024-02-26T01:44:51;10.63;;;4.85;;
80136;SDS011;69466;55.948;37.484;2024-02-26T01:47:17;8.10;;;3.38;;
80136;SDS011;69466;55.948;37.484;2024-02-26T01:49:44;9.30;;;3.15;;
80136;SDS011;69466;55.948;37.484;2024-02-26T01:52:10;7.00;;;3.33;;
80136;SDS011;69466;55.948;37.484;2024-02-26T01:54:37;7.28;;;3.60;;
80136;SDS011;69466;55.948;37.484;2024-02-26T01:57:03;8.73;;;3.40;;
80136;SDS011;69466;55.948;37.484;2024-02-26T01:59:32;8.70;;;3.53;;
80136;SDS011;69466;55.948;37.484;2024-02-26T02:02:05;6.50;;;2.80;;
80136;SDS011;69466;55.948;37.484;2024-02-26T02:04:35;7.03;;;3.25;;
80136;SDS011;69466;55.948;37.484;2024-02-26T02:07:02;7.32;;;2.92;;
80136;SDS011;69466;55.948;37.484;2024-02-26T02:11:58;7.07;;;2.80;;
80136;SDS011;69466;55.948;37.484;2024-02-26T02:14:24;5.97;;;3.10;;
80136;SDS011;69466;55.948;37.484;2024-02-26T02:16:51;9.35;;;3.42;;
80136;SDS011;69466;55.948;37.484;2024-02-26T02:19:17;9.70;;;4.05;;
80136;SDS011;69466;55.948;37.484;2024-02-26T02:21:43;8.43;;;3.00;;
80136;SDS011;69466;55.948;37.484;2024-02-26T02:24:09;7.28;;;3.38;;
80136;SDS011;69466;55.948;37.484;2024-02-26T02:26:35;6.35;;;2.72;;
80136;SDS011;69466;55.948;37.484;2024-02-26T02:29:02;6.20;;;2.92;;
80136;SDS011;69466;55.948;37.484;2024-02-26T02:31:29;9.02;;;3.08;;
80136;SDS011;69466;55.948;37.484;2024-02-26T02:33:56;7.95;;;2.92;;
80136;SDS011;69466;55.948;37.484;2024-02-26T02:36:22;7.10;;;2.78;;
80136;SDS011;69466;55.948;37.484;2024-02-26T02:38:48;6.20;;;3.20;;
80136;SDS011;69466;55.948;37.484;2024-02-26T02:41:16;6.72;;;2.60;;
80136;SDS011;69466;55.948;37.484;2024-02-26T02:43:42;6.32;;;2.75;;
80136;SDS011;69466;55.948;37.484;2024-02-26T02:46:08;6.55;;;2.90;;
80136;SDS011;69466;55.948;37.484;2024-02-26T02:48:37;10.18;;;3.58;;
80136;SDS011;69466;55.948;37.484;2024-02-26T02:51:04;6.32;;;2.45;;
80136;SDS011;69466;55.948;37.484;2024-02-26T02:53:31;6.50;;;2.95;;
80136;SDS011;69466;55.948;37.484;2024-02-26T02:55:57;8.57;;;2.63;;
80136;SDS011;69466;55.948;37.484;2024-02-26T02:58:25;6.57;;;3.25;;
80136;SDS011;69466;55.948;37.484;2024-02-26T03:00:50;8.27;;;3.10;;
80136;SDS011;69466;55.948;37.484;2024-02-26T03:03:16;6.32;;;2.58;;
80136;SDS011;69466;55.948;37.484;2024-02-26T03:08:17;6.55;;;2.45;;
80136;SDS011;69466;55.948;37.484;2024-02-26T03:10:45;6.03;;;2.63;;
80136;SDS011;69466;55.948;37.484;2024-02-26T03:13:11;8.30;;;3.65;;
80136;SDS011;69466;55.948;37.484;2024-02-26T03:15:37;6.50;;;2.40;;
80136;SDS011;69466;55.948;37.484;2024-02-26T03:18:03;8.18;;;2.53;;
80136;SDS011;69466;55.948;37.484;2024-02-26T03:20:31;6.78;;;2.35;;
80136;SDS011;69466;55.948;37.484;2024-02-26T03:22:57;6.88;;;2.67;;
80136;SDS011;69466;55.948;37.484;2024-02-26T03:25:23;4.65;;;2.72;;
80136;SDS011;69466;55.948;37.484;2024-02-26T03:27:49;7.03;;;2.63;;
80136;SDS011;69466;55.948;37.484;2024-02-26T03:30:16;6.28;;;2.42;;
80136;SDS011;69466;55.948;37.484;2024-02-26T03:32:42;6.72;;;2.47;;
80136;SDS011;69466;55.948;37.484;2024-02-26T03:35:08;6.60;;;2.90;;
80136;SDS011;69466;55.948;37.484;2024-02-26T03:41:30;7.13;;;2.40;;
80136;SDS011;69466;55.948;37.484;2024-02-26T03:43:57;6.03;;;2.72;;
80136;SDS011;69466;55.948;37.484;2024-02-26T03:46:23;6.00;;;2.58;;
80136;SDS011;69466;55.948;37.484;2024-02-26T03:48:49;7.78;;;3.30;;
80136;SDS011;69466;55.948;37.484;2024-02-26T03:51:15;6.60;;;2.83;;
80136;SDS011;69466;55.948;37.484;2024-02-26T03:53:42;7.65;;;2.85;;
80136;SDS011;69466;55.948;37.484;2024-02-26T03:56:08;11.77;;;4.55;;
80136;SDS011;69466;55.948;37.484;2024-02-26T03:58:41;6.75;;;2.47;;
80136;SDS011;69466;55.948;37.484;2024-02-26T04:01:08;8.70;;;2.90;;
80136;SDS011;69466;55.948;37.484;2024-02-26T04:03:35;6.35;;;2.65;;
80136;SDS011;69466;55.948;37.484;2024-02-26T04:06:03;5.88;;;2.47;;
80136;SDS011;69466;55.948;37.484;2024-02-26T04:08:30;5.97;;;3.05;;
80136;SDS011;69466;55.948;37.484;2024-02-26T04:13:25;7.55;;;2.22;;
80136;SDS011;69466;55.948;37.484;2024-02-26T04:16:05;7.40;;;3.05;;
80136;SDS011;69466;55.948;37.484;2024-02-26T04:18:35;6.85;;;2.88;;
80136;SDS011;69466;55.948;37.484;2024-02-26T04:21:01;6.00;;;2.30;;
80136;SDS011;69466;55.948;37.484;2024-02-26T04:23:27;5.63;;;2.90;;
80136;SDS011;69466;55.948;37.484;2024-02-26T04:25:54;10.35;;;3.67;;
80136;SDS011;69466;55.948;37.484;2024-02-26T04:28:24;7.13;;;2.67;;
80136;SDS011;69466;55.948;37.484;2024-02-26T04:30:52;4.95;;;2.33;;
80136;SDS011;69466;55.948;37.484;2024-02-26T04:50:11;5.78;;;2.55;;
80136;SDS011;69466;55.948;37.484;2024-02-26T04:52:37;6.07;;;2.47;;
80136;SDS011;69466;55.948;37.484;2024-02-26T04:55:03;7.07;;;3.10;;
80136;SDS011;69466;55.948;37.484;2024-02-26T04:57:29;7.15;;;2.88;;
80136;SDS011;69466;55.948;37.484;2024-02-26T04:59:57;6.75;;;3.00;;
80136;SDS011;69466;55.948;37.484;2024-02-26T05:02:25;5.20;;;2.40;;
80136;SDS011;69466;55.948;37.484;2024-02-26T05:04:51;9.52;;;3.20;;
80136;SDS011;69466;55.948;37.484;2024-02-26T05:07:17;11.18;;;4.38;;
80136;SDS011;69466;55.948;37.484;2024-02-26T05:09:56;7.45;;;3.50;;
80136;SDS011;69466;55.948;37.484;2024-02-26T05:12:23;8.20;;;3.45;;
80136;SDS011;69466;55.948;37.484;2024-02-26T05:14:51;10.60;;;3.28;;
80136;SDS011;69466;55.948;37.484;2024-02-26T05:17:18;7.28;;;3.35;;
80136;SDS011;69466;55.948;37.484;2024-02-26T05:19:44;7.53;;;2.88;;
80136;SDS011;69466;55.948;37.484;2024-02-26T05:22:10;6.30;;;2.97;;
80136;SDS011;69466;55.948;37.484;2024-02-26T05:24:39;7.40;;;3.78;;
80136;SDS011;69466;55.948;37.484;2024-02-26T05:27:06;7.15;;;3.25;;
80136;SDS011;69466;55.948;37.484;2024-02-26T05:29:33;8.13;;;3.33;;
80136;SDS011;69466;55.948;37.484;2024-02-26T05:31:59;7.75;;;2.95;;
80136;SDS011;69466;55.948;37.484;2024-02-26T05:34:25;8.68;;;3.35;;
80136;SDS011;69466;55.948;37.484;2024-02-26T05:36:51;11.18;;;3.72;;
80136;SDS011;69466;55.948;37.484;2024-02-26T05:39:17;8.80;;;3.15;;
80136;SDS011;69466;55.948;37.484;2024-02-26T05:41:45;7.47;;;3.35;;
80136;SDS011;69466;55.948;37.484;2024-02-26T05:44:13;7.03;;;4.10;;
80136;SDS011;69466;55.948;37.484;2024-02-26T05:46:40;6.65;;;3.53;;
80136;SDS011;69466;55.948;37.484;2024-02-26T05:49:07;8.07;;;3.80;;
80136;SDS011;69466;55.948;37.484;2024-02-26T05:51:33;7.95;;;3.72;;
80136;SDS011;69466;55.948;37.484;2024-02-26T05:53:59;7.13;;;4.05;;
80136;SDS011;69466;55.948;37.484;2024-02-26T05:56:26;10.20;;;3.72;;
80136;SDS011;69466;55.948;37.484;2024-02-26T05:58:53;8.88;;;4.03;;
80136;SDS011;69466;55.948;37.484;2024-02-26T06:01:21;8.07;;;3.50;;
80136;SDS011;69466;55.948;37.484;2024-02-26T06:03:48;8.65;;;5.05;;
80136;SDS011;69466;55.948;37.484;2024-02-26T06:06:14;9.45;;;4.07;;
80136;SDS011;69466;55.948;37.484;2024-02-26T06:08:40;10.20;;;4.28;;
80136;SDS011;69466;55.948;37.484;2024-02-26T06:11:07;8.00;;;4.13;;
80136;SDS011;69466;55.948;37.484;2024-02-26T06:13:33;8.98;;;3.30;;
80136;SDS011;69466;55.948;37.484;2024-02-26T06:16:00;8.85;;;4.07;;
80136;SDS011;69466;55.948;37.484;2024-02-26T06:18:26;8.55;;;3.63;;
80136;SDS011;69466;55.948;37.484;2024-02-26T06:20:53;7.35;;;3.63;;
80136;SDS011;69466;55.948;37.484;2024-02-26T06:23:24;12.15;;;4.82;;
80136;SDS011;69466;55.948;37.484;2024-02-26T06:28:22;9.65;;;3.97;;
80136;SDS011;69466;55.948;37.484;2024-02-26T06:30:48;10.93;;;4.35;;
80136;SDS011;69466;55.948;37.484;2024-02-26T06:33:16;12.07;;;5.45;;
80136;SDS011;69466;55.948;37.484;2024-02-26T06:35:42;8.20;;;4.28;;
80136;SDS011;69466;55.948;37.484;2024-02-26T06:38:08;8.38;;;4.32;;
80136;SDS011;69466;55.948;37.484;2024-02-26T06:40:34;9.70;;;4.38;;
80136;SDS011;69466;55.948;37.484;2024-02-26T06:43:00;9.40;;;4.30;;
80136;SDS011;69466;55.948;37.484;2024-02-26T06:45:27;10.55;;;6.30;;
80136;SDS011;69466;55.948;37.484;2024-02-26T06:47:53;9.38;;;4.80;;
80136;SDS011;69466;55.948;37.484;2024-02-26T06:50:22;9.00;;;4.32;;
80136;SDS011;69466;55.948;37.484;2024-02-26T06:52:49;7.53;;;4.35;;
80136;SDS011;69466;55.948;37.484;2024-02-26T06:55:15;10.35;;;4.38;;
80136;SDS011;69466;55.948;37.484;2024-02-26T06:57:41;7.95;;;4.20;;
80136;SDS011;69466;55.948;37.484;2024-02-26T07:00:08;11.48;;;4.18;;
80136;SDS011;69466;55.948;37.484;2024-02-26T07:02:39;12.82;;;4.55;;
80136;SDS011;69466;55.948;37.484;2024-02-26T07:05:06;11.07;;;4.85;;
80136;SDS011;69466;55.948;37.484;2024-02-26T07:07:32;8.48;;;3.90;;
80136;SDS011;69466;55.948;37.484;2024-02-26T07:09:58;13.18;;;4.80;;
80136;SDS011;69466;55.948;37.484;2024-02-26T07:12:25;8.00;;;4.13;;
80136;SDS011;69466;55.948;37.484;2024-02-26T07:14:51;8.77;;;4.40;;
80136;SDS011;69466;55.948;37.484;2024-02-26T07:17:17;9.98;;;4.80;;
80136;SDS011;69466;55.948;37.484;2024-02-26T07:19:43;12.35;;;4.88;;
80136;SDS011;69466;55.948;37.484;2024-02-26T07:22:09;8.05;;;4.03;;
80136;SDS011;69466;55.948;37.484;2024-02-26T07:24:36;13.25;;;5.03;;
80136;SDS011;69466;55.948;37.484;2024-02-26T07:27:02;11.40;;;4.70;;
80136;SDS011;69466;55.948;37.484;2024-02-26T07:29:28;13.60;;;5.47;;
80136;SDS011;69466;55.948;37.484;2024-02-26T07:31:54;10.88;;;5.07;;
80136;SDS011;69466;55.948;37.484;2024-02-26T07:34:21;10.85;;;5.22;;
80136;SDS011;69466;55.948;37.484;2024-02-26T07:36:53;9.77;;;4.95;;
80136;SDS011;69466;55.948;37.484;2024-02-26T07:39:19;11.63;;;5.63;;
80136;SDS011;69466;55.948;37.484;2024-02-26T07:41:45;8.90;;;4.80;;
80136;SDS011;69466;55.948;37.484;2024-02-26T07:44:15;12.77;;;5.13;;
80136;SDS011;69466;55.948;37.484;2024-02-26T07:46:41;10.23;;;4.80;;
80136;SDS011;69466;55.948;37.484;2024-02-26T07:49:07;7.82;;;4.10;;
80136;SDS011;69466;55.948;37.484;2024-02-26T07:51:33;9.57;;;4.72;;
80136;SDS011;69466;55.948;37.484;2024-02-26T07:54:00;12.63;;;4.50;;
80136;SDS011;69466;55.948;37.484;2024-02-26T07:56:26;10.27;;;4.85;;
80136;SDS011;69466;55.948;37.484;2024-02-26T07:58:52;11.77;;;5.38;;
80136;SDS011;69466;55.948;37.484;2024-02-26T08:01:19;12.35;;;5.57;;
80136;SDS011;69466;55.948;37.484;2024-02-26T08:03:46;13.73;;;7.03;;
80136;SDS011;69466;55.948;37.484;2024-02-26T08:06:12;10.82;;;5.07;;
80136;SDS011;69466;55.948;37.484;2024-02-26T08:08:38;11.25;;;5.10;;
80136;SDS011;69466;55.948;37.484;2024-02-26T08:11:04;10.20;;;4.90;;
80136;SDS011;69466;55.948;37.484;2024-02-26T08:13:32;13.73;;;5.97;;
80136;SDS011;69466;55.948;37.484;2024-02-26T08:16:05;12.40;;;5.75;;
80136;SDS011;69466;55.948;37.484;2024-02-26T08:18:31;9.23;;;5.50;;
80136;SDS011;69466;55.948;37.484;2024-02-26T08:21:01;13.02;;;5.70;;
80136;SDS011;69466;55.948;37.484;2024-02-26T08:23:28;11.57;;;5.78;;
80136;SDS011;69466;55.948;37.484;2024-02-26T08:25:54;10.70;;;5.63;;
80136;SDS011;69466;55.948;37.484;2024-02-26T08:28:20;9.88;;;4.95;;
80136;SDS011;69466;55.948;37.484;2024-02-26T08:30:46;9.10;;;4.60;;
80136;SDS011;69466;55.948;37.484;2024-02-26T08:33:12;11.48;;;6.03;;
80136;SDS011;69466;55.948;37.484;2024-02-26T08:35:39;9.68;;;4.82;;
80136;SDS011;69466;55.948;37.484;2024-02-26T08:38:05;9.15;;;4.20;;
80136;SDS011;69466;55.948;37.484;2024-02-26T08:40:31;10.48;;;5.57;;
80136;SDS011;69466;55.948;37.484;2024-02-26T08:42:57;11.38;;;5.72;;
80136;SDS011;69466;55.948;37.484;2024-02-26T08:45:23;13.15;;;5.13;;
80136;SDS011;69466;55.948;37.484;2024-02-26T08:47:49;9.45;;;4.75;;
80136;SDS011;69466;55.948;37.484;2024-02-26T08:50:15;17.08;;;5.50;;
80136;SDS011;69466;55.948;37.484;2024-02-26T08:52:42;11.13;;;5.82;;
80136;SDS011;69466;55.948;37.484;2024-02-26T08:55:09;11.05;;;5.05;;
80136;SDS011;69466;55.948;37.484;2024-02-26T08:57:35;9.88;;;4.72;;
80136;SDS011;69466;55.948;37.484;2024-02-26T09:00:01;11.75;;;5.30;;
80136;SDS011;69466;55.948;37.484;2024-02-26T09:02:29;11.60;;;4.63;;
80136;SDS011;69466;55.948;37.484;2024-02-26T09:07:46;10.10;;;5.18;;
80136;SDS011;69466;55.948;37.484;2024-02-26T09:10:12;11.27;;;5.65;;
80136;SDS011;69466;55.948;37.484;2024-02-26T09:12:47;13.40;;;5.15;;
80136;SDS011;69466;55.948;37.484;2024-02-26T09:15:22;12.30;;;4.97;;
80136;SDS011;69466;55.948;37.484;2024-02-26T09:17:50;10.70;;;5.70;;
80136;SDS011;69466;55.948;37.484;2024-02-26T09:20:17;12.20;;;4.95;;
80136;SDS011;69466;55.948;37.484;2024-02-26T09:23:05;13.63;;;4.95;;
80136;SDS011;69466;55.948;37.484;2024-02-26T09:31:09;10.05;;;5.10;;
80136;SDS011;69466;55.948;37.484;2024-02-26T09:33:35;11.65;;;5.20;;
80136;SDS011;69466;55.948;37.484;2024-02-26T09:36:03;11.35;;;5.10;;
80136;SDS011;69466;55.948;37.484;2024-02-26T09:47:20;10.70;;;5.25;;
80136;SDS011;69466;55.948;37.484;2024-02-26T09:49:48;13.65;;;6.25;;
80136;SDS011;69466;55.948;37.484;2024-02-26T09:52:23;10.85;;;5.35;;
80136;SDS011;69466;55.948;37.484;2024-02-26T09:54:55;9.68;;;4.90;;
80136;SDS011;69466;55.948;37.484;2024-02-26T09:57:21;14.55;;;6.32;;
80136;SDS011;69466;55.948;37.484;2024-02-26T09:59:50;9.70;;;5.22;;
80136;SDS011;69466;55.948;37.484;2024-02-26T10:02:19;10.43;;;5.00;;
80136;SDS011;69466;55.948;37.484;2024-02-26T10:04:47;8.50;;;4.88;;
80136;SDS011;69466;55.948;37.484;2024-02-26T10:07:16;10.05;;;4.82;;
80136;SDS011;69466;55.948;37.484;2024-02-26T10:09:42;11.23;;;4.80;;
80136;SDS011;69466;55.948;37.484;2024-02-26T10:12:10;12.05;;;6.90;;
80136;SDS011;69466;55.948;37.484;2024-02-26T10:14:41;7.72;;;4.40;;
80136;SDS011;69466;55.948;37.484;2024-02-26T10:17:07;11.45;;;5.13;;
80136;SDS011;69466;55.948;37.484;2024-02-26T10:19:34;8.82;;;4.40;;
80136;SDS011;69466;55.948;37.484;2024-02-26T10:22:00;9.45;;;4.30;;
80136;SDS011;69466;55.948;37.484;2024-02-26T10:24:30;9.90;;;4.55;;
80136;SDS011;69466;55.948;37.484;2024-02-26T10:26:57;11.27;;;5.28;;
80136;SDS011;69466;55.948;37.484;2024-02-26T10:29:25;10.98;;;4.43;;
80136;SDS011;69466;55.948;37.484;2024-02-26T10:31:51;10.90;;;5.35;;
80136;SDS011;69466;55.948;37.484;2024-02-26T10:34:18;10.57;;;5.15;;
80136;SDS011;69466;55.948;37.484;2024-02-26T10:36:45;16.15;;;5.30;;
80136;SDS011;69466;55.948;37.484;2024-02-26T10:39:11;10.13;;;4.85;;
80136;SDS011;69466;55.948;37.484;2024-02-26T10:41:43;11.82;;;5.82;;
80136;SDS011;69466;55.948;37.484;2024-02-26T10:44:11;12.93;;;5.07;;
80136;SDS011;69466;55.948;37.484;2024-02-26T10:46:42;11.30;;;5.07;;
80136;SDS011;69466;55.948;37.484;2024-02-26T10:49:19;11.00;;;4.50;;
80136;SDS011;69466;55.948;37.484;2024-02-26T10:51:59;12.25;;;5.22;;
80136;SDS011;69466;55.948;37.484;2024-02-26T10:54:28;11.43;;;4.55;;
80136;SDS011;69466;55.948;37.484;2024-02-26T10:56:58;13.20;;;5.93;;
80136;SDS011;69466;55.948;37.484;2024-02-26T11:01:58;12.20;;;5.22;;
80136;SDS011;69466;55.948;37.484;2024-02-26T11:04:27;11.38;;;5.43;;
80136;SDS011;69466;55.948;37.484;2024-02-26T11:07:05;12.98;;;5.13;;
80136;SDS011;69466;55.948;37.484;2024-02-26T11:09:37;12.68;;;4.95;;
80136;SDS011;69466;55.948;37.484;2024-02-26T11:12:10;11.00;;;4.90;;
80136;SDS011;69466;55.948;37.484;2024-02-26T11:14:47;10.93;;;4.85;;
80136;SDS011;69466;55.948;37.484;2024-02-26T11:17:16;13.77;;;6.15;;
80136;SDS011;69466;55.948;37.484;2024-02-26T11:19:45;12.35;;;5.90;;
80136;SDS011;69466;55.948;37.484;2024-02-26T11:22:13;12.80;;;4.45;;
80136;SDS011;69466;55.948;37.484;2024-02-26T11:24:41;14.25;;;5.57;;
80136;SDS011;69466;55.948;37.484;2024-02-26T11:27:09;13.40;;;4.85;;
80136;SDS011;69466;55.948;37.484;2024-02-26T11:29:50;9.18;;;4.85;;
80136;SDS011;69466;55.948;37.484;2024-02-26T11:32:18;15.32;;;6.43;;
80136;SDS011;69466;55.948;37.484;2024-02-26T11:34:45;9.55;;;4.47;;
80136;SDS011;69466;55.948;37.484;2024-02-26T11:37:17;10.30;;;5.10;;
80136;SDS011;69466;55.948;37.484;2024-02-26T11:39:58;11.10;;;4.63;;
80136;SDS011;69466;55.948;37.484;2024-02-26T11:42:31;13.60;;;5.35;;
80136;SDS011;69466;55.948;37.484;2024-02-26T11:44:58;8.18;;;5.10;;
80136;SDS011;69466;55.948;37.484;2024-02-26T11:47:26;12.38;;;4.97;;
80136;SDS011;69466;55.948;37.484;2024-02-26T11:49:54;13.88;;;5.45;;
80136;SDS011;69466;55.948;37.484;2024-02-26T11:54:51;11.80;;;5.18;;
80136;SDS011;69466;55.948;37.484;2024-02-26T12:00:14;12.98;;;5.75;;
80136;SDS011;69466;55.948;37.484;2024-02-26T12:02:55;13.52;;;5.75;;
80136;SDS011;69466;55.948;37.484;2024-02-26T12:05:30;12.43;;;5.80;;
80136;SDS011;69466;55.948;37.484;2024-02-26T12:08:04;10.82;;;4.95;;
80136;SDS011;69466;55.948;37.484;2024-02-26T12:10:39;13.88;;;5.45;;
80136;SDS011;69466;55.948;37.484;2024-02-26T12:13:15;12.18;;;5.97;;
80136;SDS011;69466;55.948;37.484;2024-02-26T12:15:43;12.05;;;5.57;;
80136;SDS011;69466;55.948;37.484;2024-02-26T12:18:15;9.52;;;5.25;;
80136;SDS011;69466;55.948;37.484;2024-02-26T12:20:44;12.85;;;6.07;;
80136;SDS011;69466;55.948;37.484;2024-02-26T12:23:14;10.98;;;5.68;;
80136;SDS011;69466;55.948;37.484;2024-02-26T12:25:43;12.55;;;5.75;;
80136;SDS011;69466;55.948;37.484;2024-02-26T12:28:09;14.77;;;6.07;;
80136;SDS011;69466;55.948;37.484;2024-02-26T12:30:36;11.50;;;5.57;;
80136;SDS011;69466;55.948;37.484;2024-02-26T12:33:03;12.50;;;5.20;;
80136;SDS011;69466;55.948;37.484;2024-02-26T12:35:30;14.02;;;6.10;;
80136;SDS011;69466;55.948;37.484;2024-02-26T12:37:58;15.35;;;5.95;;
80136;SDS011;69466;55.948;37.484;2024-02-26T12:40:24;15.32;;;7.35;;
80136;SDS011;69466;55.948;37.484;2024-02-26T12:42:53;15.15;;;6.00;;
80136;SDS011;69466;55.948;37.484;2024-02-26T12:45:20;11.82;;;5.95;;
80136;SDS011;69466;55.948;37.484;2024-02-26T12:47:47;15.88;;;6.20;;
80136;SDS011;69466;55.948;37.484;2024-02-26T12:50:15;15.18;;;7.10;;
80136;SDS011;69466;55.948;37.484;2024-02-26T12:52:45;16.25;;;7.82;;
80136;SDS011;69466;55.948;37.484;2024-02-26T12:55:17;13.20;;;7.63;;
80136;SDS011;69466;55.948;37.484;2024-02-26T12:57:47;15.95;;;6.72;;
80136;SDS011;69466;55.948;37.484;2024-02-26T13:00:19;14.85;;;6.75;;
80136;SDS011;69466;55.948;37.484;2024-02-26T13:02:49;15.23;;;7.00;;
80136;SDS011;69466;55.948;37.484;2024-02-26T13:05:16;12.05;;;5.18;;
80136;SDS011;69466;55.948;37.484;2024-02-26T13:07:45;11.73;;;5.50;;
80136;SDS011;69466;55.948;37.484;2024-02-26T13:10:16;11.38;;;5.70;;
80136;SDS011;69466;55.948;37.484;2024-02-26T13:12:44;10.73;;;4.97;;
80136;SDS011;69466;55.948;37.484;2024-02-26T13:15:14;11.52;;;5.45;;
80136;SDS011;69466;55.948;37.484;2024-02-26T13:17:45;14.20;;;5.97;;
80136;SDS011;69466;55.948;37.484;2024-02-26T13:20:12;15.15;;;5.07;;
80136;SDS011;69466;55.948;37.484;2024-02-26T13:22:40;12.77;;;5.75;;
80136;SDS011;69466;55.948;37.484;2024-02-26T13:25:07;11.90;;;6.32;;
80136;SDS011;69466;55.948;37.484;2024-02-26T13:27:34;17.13;;;5.60;;
80136;SDS011;69466;55.948;37.484;2024-02-26T13:32:34;11.82;;;4.82;;
80136;SDS011;69466;55.948;37.484;2024-02-26T13:35:07;17.45;;;5.10;;
80136;SDS011;69466;55.948;37.484;2024-02-26T13:37:36;10.80;;;5.20;;
80136;SDS011;69466;55.948;37.484;2024-02-26T13:40:09;15.50;;;5.43;;
80136;SDS011;69466;55.948;37.484;2024-02-26T13:42:36;10.05;;;4.97;;
80136;SDS011;69466;55.948;37.484;2024-02-26T13:45:03;13.48;;;5.05;;
80136;SDS011;69466;55.948;37.484;2024-02-26T13:47:34;13.30;;;4.78;;
80136;SDS011;69466;55.948;37.484;2024-02-26T13:50:01;10.57;;;4.95;;
80136;SDS011;69466;55.948;37.484;2024-02-26T13:52:30;12.20;;;6.57;;
80136;SDS011;69466;55.948;37.484;2024-02-26T13:54:58;11.82;;;5.60;;
80136;SDS011;69466;55.948;37.484;2024-02-26T13:57:31;13.75;;;5.63;;
80136;SDS011;69466;55.948;37.484;2024-02-26T13:59:59;9.25;;;4.28;;
80136;SDS011;69466;55.948;37.484;2024-02-26T14:02:26;11.98;;;4.85;;
80136;SDS011;69466;55.948;37.484;2024-02-26T14:04:53;15.10;;;5.88;;
80136;SDS011;69466;55.948;37.484;2024-02-26T14:07:19;11.88;;;4.53;;
80136;SDS011;69466;55.948;37.484;2024-02-26T14:09:49;9.90;;;4.32;;
80136;SDS011;69466;55.948;37.484;2024-02-26T14:12:19;12.95;;;5.60;;
80136;SDS011;69466;55.948;37.484;2024-02-26T14:14:45;8.38;;;4.22;;
80136;SDS011;69466;55.948;37.484;2024-02-26T14:17:15;11.10;;;3.88;;
80136;SDS011;69466;55.948;37.484;2024-02-26T14:19:44;16.60;;;5.75;;
80136;SDS011;69466;55.948;37.484;2024-02-26T14:22:10;12.77;;;4.10;;
80136;SDS011;69466;55.948;37.484;2024-02-26T14:24:41;11.05;;;4.20;;
80136;SDS011;69466;55.948;37.484;2024-02-26T14:27:08;8.77;;;4.47;;
80136;SDS011;69466;55.948;37.484;2024-02-26T14:29:37;8.25;;;4.50;;
80136;SDS011;69466;55.948;37.484;2024-02-26T14:32:05;13.82;;;4.05;;
80136;SDS011;69466;55.948;37.484;2024-02-26T14:34:31;7.00;;;3.28;;
80136;SDS011;69466;55.948;37.484;2024-02-26T14:36:58;12.73;;;4.32;;
80136;SDS011;69466;55.948;37.484;2024-02-26T14:39:25;7.47;;;3.20;;
80136;SDS011;69466;55.948;37.484;2024-02-26T14:41:51;9.43;;;3.92;;
80136;SDS011;69466;55.948;37.484;2024-02-26T14:44:17;6.63;;;2.70;;
80136;SDS011;69466;55.948;37.484;2024-02-26T14:46:44;9.45;;;3.83;;
80136;SDS011;69466;55.948;37.484;2024-02-26T14:49:11;11.20;;;3.67;;
80136;SDS011;69466;55.948;37.484;2024-02-26T14:51:38;8.85;;;3.72;;
80136;SDS011;69466;55.948;37.484;2024-02-26T14:54:04;7.50;;;3.33;;
80136;SDS011;69466;55.948;37.484;2024-02-26T14:56:31;10.68;;;3.47;;
80136;SDS011;69466;55.948;37.484;2024-02-26T14:58:57;9.60;;;3.20;;
80136;SDS011;69466;55.948;37.484;2024-02-26T15:01:23;11.15;;;3.53;;
80136;SDS011;69466;55.948;37.484;2024-02-26T15:03:50;9.25;;;3.50;;
80136;SDS011;69466;55.948;37.484;2024-02-26T15:06:16;6.75;;;2.88;;
80136;SDS011;69466;55.948;37.484;2024-02-26T15:08:44;6.60;;;3.03;;
80136;SDS011;69466;55.948;37.484;2024-02-26T15:11:10;11.75;;;3.50;;
80136;SDS011;69466;55.948;37.484;2024-02-26T15:13:36;10.73;;;4.25;;
80136;SDS011;69466;55.948;37.484;2024-02-26T15:16:02;8.88;;;4.05;;
80136;SDS011;69466;55.948;37.484;2024-02-26T15:18:29;8.68;;;3.92;;
80136;SDS011;69466;55.948;37.484;2024-02-26T15:20:56;12.90;;;3.60;;
80136;SDS011;69466;55.948;37.484;2024-02-26T15:23:22;16.80;;;5.35;;
80136;SDS011;69466;55.948;37.484;2024-02-26T15:25:48;11.43;;;5.50;;
80136;SDS011;69466;55.948;37.484;2024-02-26T15:28:14;10.95;;;4.43;;
80136;SDS011;69466;55.948;37.484;2024-02-26T15:30:41;11.98;;;4.82;;